sensor_id;sensor_type;location;lat;lon;timestamp;pressure;altitude;pressure_sealevel;temperature;humidity
21111;BME280;10713;51.912;4.494;2023-10-31T00:01:05;99732.09;;;12.38;100.00
21111;BME280;10713;51.912;4.494;2023-10-31T00:03:31;99732.78;;;12.42;100.00
21111;BME280;10713;51.912;4.494;2023-10-31T00:05:56;99731.47;;;12.35;100.00
21111;BME280;10713;51.912;4.494;2023-10-31T00:08:22;99722.56;;;12.36;100.00
21111;BME280;10713;51.912;4.494;2023-10-31T00:10:49;99724.69;;;12.31;100.00
21111;BME280;10713;51.912;4.494;2023-10-31T00:13:14;99723.91;;;12.29;100.00
21111;BME280;10713;51.912;4.494;2023-10-31T00:15:40;99721.16;;;12.30;100.00
21111;BME280;10713;51.912;4.494;2023-10-31T00:18:05;99726.09;;;12.36;100.00
21111;BME280;10713;51.912;4.494;2023-10-31T00:20:30;99733.63;;;12.43;100.00
21111;BME280;10713;51.912;4.494;2023-10-31T00:22:56;99731.06;;;12.41;100.00
21111;BME280;10713;51.912;4.494;2023-10-31T00:25:21;99726.53;;;12.43;100.00
21111;BME280;10713;51.912;4.494;2023-10-31T00:27:46;99731.06;;;12.41;100.00
21111;BME280;10713;51.912;4.494;2023-10-31T00:30:12;99727.56;;;12.40;100.00
21111;BME280;10713;51.912;4.494;2023-10-31T00:32:37;99723.31;;;12.38;100.00
21111;BME280;10713;51.912;4.494;2023-10-31T00:35:03;99725.31;;;12.34;100.00
21111;BME280;10713;51.912;4.494;2023-10-31T00:37:28;99732.41;;;12.34;100.00
21111;BME280;10713;51.912;4.494;2023-10-31T00:39:53;99737.72;;;12.34;100.00
21111;BME280;10713;51.912;4.494;2023-10-31T00:42:19;99740.44;;;12.32;100.00
21111;BME280;10713;51.912;4.494;2023-10-31T00:44:44;99739.59;;;12.32;100.00
21111;BME280;10713;51.912;4.494;2023-10-31T00:47:09;99733.16;;;12.36;100.00
21111;BME280;10713;51.912;4.494;2023-10-31T00:49:35;99742.50;;;12.42;100.00
21111;BME280;10713;51.912;4.494;2023-10-31T00:52:00;99742.50;;;12.42;100.00
21111;BME280;10713;51.912;4.494;2023-10-31T00:54:26;99745.91;;;12.44;100.00
21111;BME280;10713;51.912;4.494;2023-10-31T00:56:51;99749.31;;;12.46;100.00
21111;BME280;10713;51.912;4.494;2023-10-31T00:59:16;99753.63;;;12.47;100.00
21111;BME280;10713;51.912;4.494;2023-10-31T01:01:42;99749.50;;;12.43;100.00
21111;BME280;10713;51.912;4.494;2023-10-31T01:04:08;99762.72;;;12.43;100.00
21111;BME280;10713;51.912;4.494;2023-10-31T01:06:33;99762.72;;;12.43;100.00
21111;BME280;10713;51.912;4.494;2023-10-31T01:08:59;99772.81;;;12.50;100.00
21111;BME280;10713;51.912;4.494;2023-10-31T01:11:24;99771.47;;;12.57;100.00
21111;BME280;10713;51.912;4.494;2023-10-31T01:13:49;99772.31;;;12.58;100.00
21111;BME280;10713;51.912;4.494;2023-10-31T01:16:15;99780.38;;;12.56;100.00
21111;BME280;10713;51.912;4.494;2023-10-31T01:18:40;99791.16;;;12.53;100.00
21111;BME280;10713;51.912;4.494;2023-10-31T01:21:05;99794.94;;;12.49;100.00
21111;BME280;10713;51.912;4.494;2023-10-31T01:23:31;99788.69;;;12.50;100.00
21111;BME280;10713;51.912;4.494;2023-10-31T01:25:56;99793.81;;;12.53;100.00
21111;BME280;10713;51.912;4.494;2023-10-31T01:28:22;99796.59;;;12.65;100.00
21111;BME280;10713;51.912;4.494;2023-10-31T01:30:47;99793.38;;;12.74;100.00
21111;BME280;10713;51.912;4.494;2023-10-31T01:33:12;99796.13;;;12.72;100.00
21111;BME280;10713;51.912;4.494;2023-10-31T01:35:38;99803.09;;;12.73;100.00
21111;BME280;10713;51.912;4.494;2023-10-31T01:38:03;99803.84;;;12.75;100.00
21111;BME280;10713;51.912;4.494;2023-10-31T01:40:28;99803.22;;;12.72;100.00
21111;BME280;10713;51.912;4.494;2023-10-31T01:42:55;99804.91;;;12.73;100.00
21111;BME280;10713;51.912;4.494;2023-10-31T01:45:20;99810.59;;;12.67;100.00
21111;BME280;10713;51.912;4.494;2023-10-31T01:47:48;99812.59;;;12.63;100.00
21111;BME280;10713;51.912;4.494;2023-10-31T01:50:14;99814.81;;;12.42;100.00
21111;BME280;10713;51.912;4.494;2023-10-31T01:52:40;99818.13;;;12.46;100.00
21111;BME280;10713;51.912;4.494;2023-10-31T01:55:05;99826.06;;;12.46;100.00
21111;BME280;10713;51.912;4.494;2023-10-31T01:57:32;99814.72;;;12.44;100.00
21111;BME280;10713;51.912;4.494;2023-10-31T01:59:57;99823.59;;;12.43;100.00
21111;BME280;10713;51.912;4.494;2023-10-31T02:02:23;99824.25;;;12.46;100.00
21111;BME280;10713;51.912;4.494;2023-10-31T02:04:51;99836.66;;;12.46;100.00
21111;BME280;10713;51.912;4.494;2023-10-31T02:07:16;99828.72;;;12.46;100.00
21111;BME280;10713;51.912;4.494;2023-10-31T02:09:42;99829.75;;;12.43;100.00
21111;BME280;10713;51.912;4.494;2023-10-31T02:12:07;99838.53;;;12.44;100.00
21111;BME280;10713;51.912;4.494;2023-10-31T02:14:32;99836.09;;;12.40;100.00
21111;BME280;10713;51.912;4.494;2023-10-31T02:16:58;99829.50;;;12.33;100.00
21111;BME280;10713;51.912;4.494;2023-10-31T02:19:23;99835.72;;;12.32;100.00
21111;BME280;10713;51.912;4.494;2023-10-31T02:21:49;99832.22;;;12.32;100.00
21111;BME280;10713;51.912;4.494;2023-10-31T02:24:14;99835.81;;;12.31;100.00
21111;BME280;10713;51.912;4.494;2023-10-31T02:26:39;99836.84;;;12.28;100.00
21111;BME280;10713;51.912;4.494;2023-10-31T02:29:04;99845.72;;;12.27;100.00
21111;BME280;10713;51.912;4.494;2023-10-31T02:31:31;99841.56;;;12.23;100.00
21111;BME280;10713;51.912;4.494;2023-10-31T02:33:57;99844.31;;;12.22;100.00
21111;BME280;10713;51.912;4.494;2023-10-31T02:36:22;99840.06;;;12.19;100.00
21111;BME280;10713;51.912;4.494;2023-10-31T02:38:48;99854.16;;;12.20;100.00
21111;BME280;10713;51.912;4.494;2023-10-31T02:41:13;99850.09;;;12.14;100.00
21111;BME280;10713;51.912;4.494;2023-10-31T02:43:41;99847.44;;;12.14;100.00
21111;BME280;10713;51.912;4.494;2023-10-31T02:46:06;99851.97;;;12.12;100.00
21111;BME280;10713;51.912;4.494;2023-10-31T02:48:32;99862.38;;;12.15;100.00
21111;BME280;10713;51.912;4.494;2023-10-31T02:51:04;99850.94;;;12.14;100.00
21111;BME280;10713;51.912;4.494;2023-10-31T02:53:30;99852.72;;;12.14;100.00
21111;BME280;10713;51.912;4.494;2023-10-31T02:55:55;99846.69;;;12.12;100.00
21111;BME280;10713;51.912;4.494;2023-10-31T02:58:20;99855.66;;;12.09;100.00
21111;BME280;10713;51.912;4.494;2023-10-31T03:00:46;99848.84;;;12.05;100.00
21111;BME280;10713;51.912;4.494;2023-10-31T03:03:11;99855.75;;;12.08;100.00
21111;BME280;10713;51.912;4.494;2023-10-31T03:05:36;99868.09;;;12.07;100.00
21111;BME280;10713;51.912;4.494;2023-10-31T03:08:02;99856.69;;;12.07;100.00
21111;BME280;10713;51.912;4.494;2023-10-31T03:10:27;99870.09;;;12.04;100.00
21111;BME280;10713;51.912;4.494;2023-10-31T03:12:52;99862.47;;;11.99;100.00
21111;BME280;10713;51.912;4.494;2023-10-31T03:15:18;99871.25;;;12.00;100.00
21111;BME280;10713;51.912;4.494;2023-10-31T03:17:43;99872.09;;;12.00;100.00
21111;BME280;10713;51.912;4.494;2023-10-31T03:20:09;99865.00;;;12.01;100.00
21111;BME280;10713;51.912;4.494;2023-10-31T03:22:34;99866.88;;;11.99;100.00
21111;BME280;10713;51.912;4.494;2023-10-31T03:25:00;99874.72;;;12.00;100.00
21111;BME280;10713;51.912;4.494;2023-10-31T03:27:26;99875.69;;;11.99;100.00
21111;BME280;10713;51.912;4.494;2023-10-31T03:29:51;99879.44;;;11.95;100.00
21111;BME280;10713;51.912;4.494;2023-10-31T03:32:16;99884.91;;;11.92;100.00
21111;BME280;10713;51.912;4.494;2023-10-31T03:34:42;99882.53;;;11.87;100.00
21111;BME280;10713;51.912;4.494;2023-10-31T03:37:07;99882.66;;;11.86;100.00
21111;BME280;10713;51.912;4.494;2023-10-31T03:39:33;99880.84;;;11.86;100.00
21111;BME280;10713;51.912;4.494;2023-10-31T03:41:59;99891.06;;;11.92;100.00
21111;BME280;10713;51.912;4.494;2023-10-31T03:44:24;99880.09;;;11.99;100.00
21111;BME280;10713;51.912;4.494;2023-10-31T03:46:49;99878.81;;;12.06;100.00
21111;BME280;10713;51.912;4.494;2023-10-31T03:49:15;99880.31;;;12.10;100.00
21111;BME280;10713;51.912;4.494;2023-10-31T03:51:40;99871.06;;;12.03;100.00
21111;BME280;10713;51.912;4.494;2023-10-31T03:54:05;99871.72;;;12.06;100.00
21111;BME280;10713;51.912;4.494;2023-10-31T03:56:38;99874.28;;;12.08;100.00
21111;BME280;10713;51.912;4.494;2023-10-31T03:59:03;99875.19;;;12.07;100.00
21111;BME280;10713;51.912;4.494;2023-10-31T04:01:29;99873.13;;;12.12;100.00
21111;BME280;10713;51.912;4.494;2023-10-31T04:03:54;99882.22;;;12.08;100.00
21111;BME280;10713;51.912;4.494;2023-10-31T04:06:19;99890.03;;;12.09;100.00
21111;BME280;10713;51.912;4.494;2023-10-31T04:08:45;99894.47;;;12.09;100.00
21111;BME280;10713;51.912;4.494;2023-10-31T04:11:10;99897.78;;;12.12;100.00
21111;BME280;10713;51.912;4.494;2023-10-31T04:13:35;99910.94;;;12.14;100.00
21111;BME280;10713;51.912;4.494;2023-10-31T04:16:01;99912.03;;;12.10;100.00
21111;BME280;10713;51.912;4.494;2023-10-31T04:18:26;99911.19;;;12.09;100.00
21111;BME280;10713;51.912;4.494;2023-10-31T04:20:51;99921.78;;;12.09;100.00
21111;BME280;10713;51.912;4.494;2023-10-31T04:23:17;99915.28;;;12.15;100.00
21111;BME280;10713;51.912;4.494;2023-10-31T04:25:42;99919.78;;;12.13;100.00
21111;BME280;10713;51.912;4.494;2023-10-31T04:28:07;99917.63;;;12.05;100.00
21111;BME280;10713;51.912;4.494;2023-10-31T04:30:33;99926.50;;;12.04;100.00
21111;BME280;10713;51.912;4.494;2023-10-31T04:32:58;99933.00;;;11.99;100.00
21111;BME280;10713;51.912;4.494;2023-10-31T04:35:23;99933.09;;;11.97;100.00
21111;BME280;10713;51.912;4.494;2023-10-31T04:37:49;99928.78;;;11.96;100.00
21111;BME280;10713;51.912;4.494;2023-10-31T04:40:14;99934.78;;;11.98;100.00
21111;BME280;10713;51.912;4.494;2023-10-31T04:42:39;99929.50;;;11.98;100.00
21111;BME280;10713;51.912;4.494;2023-10-31T04:45:06;99933.59;;;12.04;100.00
21111;BME280;10713;51.912;4.494;2023-10-31T04:47:32;99941.63;;;12.02;100.00
21111;BME280;10713;51.912;4.494;2023-10-31T04:49:57;99943.75;;;11.95;100.00
21111;BME280;10713;51.912;4.494;2023-10-31T04:52:22;99939.97;;;11.85;100.00
21111;BME280;10713;51.912;4.494;2023-10-31T04:54:51;99945.84;;;11.90;100.00
21111;BME280;10713;51.912;4.494;2023-10-31T04:57:16;99952.25;;;11.86;100.00
21111;BME280;10713;51.912;4.494;2023-10-31T04:59:42;99962.91;;;11.85;100.00
21111;BME280;10713;51.912;4.494;2023-10-31T05:02:07;99966.31;;;11.87;100.00
21111;BME280;10713;51.912;4.494;2023-10-31T05:04:32;99967.25;;;11.86;100.00
21111;BME280;10713;51.912;4.494;2023-10-31T05:06:58;99976.13;;;11.85;100.00
21111;BME280;10713;51.912;4.494;2023-10-31T05:09:23;99972.38;;;11.89;100.00
21111;BME280;10713;51.912;4.494;2023-10-31T05:11:49;99981.06;;;11.91;100.00
21111;BME280;10713;51.912;4.494;2023-10-31T05:14:14;99987.97;;;11.93;100.00
21111;BME280;10713;51.912;4.494;2023-10-31T05:16:43;99984.31;;;11.96;100.00
21111;BME280;10713;51.912;4.494;2023-10-31T05:19:09;99990.63;;;11.93;100.00
21111;BME280;10713;51.912;4.494;2023-10-31T05:21:35;99985.22;;;11.95;100.00
21111;BME280;10713;51.912;4.494;2023-10-31T05:24:00;99995.81;;;11.95;100.00
21111;BME280;10713;51.912;4.494;2023-10-31T05:26:26;99991.56;;;11.92;100.00
21111;BME280;10713;51.912;4.494;2023-10-31T05:28:53;100001.75;;;11.99;100.00
21111;BME280;10713;51.912;4.494;2023-10-31T05:31:18;99997.25;;;12.01;100.00
21111;BME280;10713;51.912;4.494;2023-10-31T05:33:43;100005.38;;;11.98;100.00
21111;BME280;10713;51.912;4.494;2023-10-31T05:36:22;100010.41;;;12.02;100.00
21111;BME280;10713;51.912;4.494;2023-10-31T05:38:47;100006.53;;;12.08;100.00
21111;BME280;10713;51.912;4.494;2023-10-31T05:41:14;100011.06;;;12.06;100.00
21111;BME280;10713;51.912;4.494;2023-10-31T05:43:40;100011.72;;;12.09;100.00
21111;BME280;10713;51.912;4.494;2023-10-31T05:46:05;100018.88;;;12.07;100.00
21111;BME280;10713;51.912;4.494;2023-10-31T05:48:31;100016.53;;;12.03;100.00
21111;BME280;10713;51.912;4.494;2023-10-31T05:50:57;100004.22;;;12.02;100.00
21111;BME280;10713;51.912;4.494;2023-10-31T05:53:22;100008.13;;;11.96;100.00
21111;BME280;10713;51.912;4.494;2023-10-31T05:55:47;100018.19;;;11.89;100.00
21111;BME280;10713;51.912;4.494;2023-10-31T05:58:12;100007.53;;;11.91;100.00
21111;BME280;10713;51.912;4.494;2023-10-31T06:00:38;100013.47;;;11.94;100.00
21111;BME280;10713;51.912;4.494;2023-10-31T06:03:03;100017.41;;;11.87;100.00
21111;BME280;10713;51.912;4.494;2023-10-31T06:05:29;100015.53;;;11.89;100.00
21111;BME280;10713;51.912;4.494;2023-10-31T06:07:54;100025.47;;;11.84;100.00
21111;BME280;10713;51.912;4.494;2023-10-31T06:10:20;100029.88;;;11.85;100.00
21111;BME280;10713;51.912;4.494;2023-10-31T06:12:46;100029.50;;;11.76;100.00
21111;BME280;10713;51.912;4.494;2023-10-31T06:15:12;100028.16;;;11.68;100.00
21111;BME280;10713;51.912;4.494;2023-10-31T06:17:37;100021.94;;;11.69;100.00
21111;BME280;10713;51.912;4.494;2023-10-31T06:20:02;100030.31;;;11.62;100.00
21111;BME280;10713;51.912;4.494;2023-10-31T06:22:28;100033.22;;;11.57;100.00
21111;BME280;10713;51.912;4.494;2023-10-31T06:24:53;100040.47;;;11.54;100.00
21111;BME280;10713;51.912;4.494;2023-10-31T06:27:19;100037.13;;;11.50;100.00
21111;BME280;10713;51.912;4.494;2023-10-31T06:29:44;100042.09;;;11.56;100.00
21111;BME280;10713;51.912;4.494;2023-10-31T06:32:09;100044.88;;;11.53;100.00
21111;BME280;10713;51.912;4.494;2023-10-31T06:34:35;100046.94;;;11.48;100.00
21111;BME280;10713;51.912;4.494;2023-10-31T06:37:00;100046.94;;;11.48;100.00
21111;BME280;10713;51.912;4.494;2023-10-31T06:39:25;100052.91;;;11.52;100.00
21111;BME280;10713;51.912;4.494;2023-10-31T06:41:54;100054.53;;;11.54;100.00
21111;BME280;10713;51.912;4.494;2023-10-31T06:44:20;100055.63;;;11.50;100.00
21111;BME280;10713;51.912;4.494;2023-10-31T06:46:45;100058.38;;;11.48;100.00
21111;BME280;10713;51.912;4.494;2023-10-31T06:49:10;100068.84;;;11.50;100.00
21111;BME280;10713;51.912;4.494;2023-10-31T06:51:36;100066.97;;;11.52;100.00
21111;BME280;10713;51.912;4.494;2023-10-31T06:54:01;100078.31;;;11.54;100.00
21111;BME280;10713;51.912;4.494;2023-10-31T06:56:26;100084.09;;;11.61;100.00
21111;BME280;10713;51.912;4.494;2023-10-31T06:58:53;100074.97;;;11.66;100.00
21111;BME280;10713;51.912;4.494;2023-10-31T07:01:19;100085.47;;;11.84;100.00
21111;BME280;10713;51.912;4.494;2023-10-31T07:03:44;100094.88;;;12.05;100.00
21111;BME280;10713;51.912;4.494;2023-10-31T07:06:09;100092.94;;;12.23;100.00
21111;BME280;10713;51.912;4.494;2023-10-31T07:08:35;100096.25;;;12.57;100.00
21111;BME280;10713;51.912;4.494;2023-10-31T07:11:00;100091.31;;;13.10;100.00
21111;BME280;10713;51.912;4.494;2023-10-31T07:13:25;100094.25;;;13.62;100.00
21111;BME280;10713;51.912;4.494;2023-10-31T07:15:51;100095.69;;;14.08;100.00
21111;BME280;10713;51.912;4.494;2023-10-31T07:18:16;100097.03;;;14.28;100.00
21111;BME280;10713;51.912;4.494;2023-10-31T07:20:41;100088.22;;;14.54;100.00
21111;BME280;10713;51.912;4.494;2023-10-31T07:23:07;100106.38;;;14.60;100.00
21111;BME280;10713;51.912;4.494;2023-10-31T07:25:32;100101.66;;;14.51;100.00
21111;BME280;10713;51.912;4.494;2023-10-31T07:27:57;100098.75;;;14.29;100.00
21111;BME280;10713;51.912;4.494;2023-10-31T07:30:23;100104.19;;;14.13;100.00
21111;BME280;10713;51.912;4.494;2023-10-31T07:32:48;100106.41;;;14.06;100.00
21111;BME280;10713;51.912;4.494;2023-10-31T07:35:13;100123.16;;;13.94;100.00
21111;BME280;10713;51.912;4.494;2023-10-31T07:37:39;100120.81;;;13.75;100.00
21111;BME280;10713;51.912;4.494;2023-10-31T07:40:04;100124.66;;;13.57;100.00
21111;BME280;10713;51.912;4.494;2023-10-31T07:42:30;100120.88;;;13.32;100.00
21111;BME280;10713;51.912;4.494;2023-10-31T07:44:55;100116.00;;;13.10;100.00
21111;BME280;10713;51.912;4.494;2023-10-31T07:47:21;100126.88;;;12.91;100.00
21111;BME280;10713;51.912;4.494;2023-10-31T07:49:46;100118.53;;;12.83;100.00
21111;BME280;10713;51.912;4.494;2023-10-31T07:52:13;100121.75;;;12.74;100.00
21111;BME280;10713;51.912;4.494;2023-10-31T07:54:39;100122.13;;;12.68;100.00
21111;BME280;10713;51.912;4.494;2023-10-31T07:57:05;100125.22;;;12.60;100.00
21111;BME280;10713;51.912;4.494;2023-10-31T07:59:33;100135.97;;;12.57;100.00
21111;BME280;10713;51.912;4.494;2023-10-31T08:01:59;100138.63;;;12.57;100.00
21111;BME280;10713;51.912;4.494;2023-10-31T08:04:24;100135.63;;;12.63;100.00
21111;BME280;10713;51.912;4.494;2023-10-31T08:06:50;100135.09;;;12.87;100.00
21111;BME280;10713;51.912;4.494;2023-10-31T08:09:15;100137.00;;;12.99;100.00
21111;BME280;10713;51.912;4.494;2023-10-31T08:11:41;100138.41;;;12.90;100.00
21111;BME280;10713;51.912;4.494;2023-10-31T08:14:06;100144.72;;;12.88;100.00
21111;BME280;10713;51.912;4.494;2023-10-31T08:16:32;100139.34;;;12.89;100.00
21111;BME280;10713;51.912;4.494;2023-10-31T08:18:57;100142.88;;;13.04;100.00
21111;BME280;10713;51.912;4.494;2023-10-31T08:21:22;100146.19;;;14.20;100.00
21111;BME280;10713;51.912;4.494;2023-10-31T08:23:48;100139.34;;;15.60;100.00
21111;BME280;10713;51.912;4.494;2023-10-31T08:26:13;100134.69;;;16.84;100.00
21111;BME280;10713;51.912;4.494;2023-10-31T08:28:40;100120.91;;;17.91;100.00
21111;BME280;10713;51.912;4.494;2023-10-31T08:31:06;100123.31;;;18.06;100.00
21111;BME280;10713;51.912;4.494;2023-10-31T08:33:31;100111.34;;;17.55;100.00
21111;BME280;10713;51.912;4.494;2023-10-31T08:35:56;100125.41;;;17.34;100.00
21111;BME280;10713;51.912;4.494;2023-10-31T08:38:22;100139.56;;;17.01;100.00
21111;BME280;10713;51.912;4.494;2023-10-31T08:40:47;100147.38;;;16.56;100.00
21111;BME280;10713;51.912;4.494;2023-10-31T08:43:14;100148.06;;;16.12;100.00
21111;BME280;10713;51.912;4.494;2023-10-31T08:45:39;100147.22;;;15.74;100.00
21111;BME280;10713;51.912;4.494;2023-10-31T08:48:04;100145.50;;;15.48;100.00
21111;BME280;10713;51.912;4.494;2023-10-31T08:50:30;100159.78;;;15.21;100.00
21111;BME280;10713;51.912;4.494;2023-10-31T08:52:55;100152.84;;;14.93;100.00
21111;BME280;10713;51.912;4.494;2023-10-31T08:55:21;100155.72;;;14.77;100.00
21111;BME280;10713;51.912;4.494;2023-10-31T08:57:47;100157.75;;;14.74;100.00
21111;BME280;10713;51.912;4.494;2023-10-31T09:00:12;100173.34;;;14.66;100.00
21111;BME280;10713;51.912;4.494;2023-10-31T09:02:38;100168.31;;;14.61;100.00
21111;BME280;10713;51.912;4.494;2023-10-31T09:05:04;100176.69;;;14.55;100.00
21111;BME280;10713;51.912;4.494;2023-10-31T09:07:29;100176.03;;;14.51;100.00
21111;BME280;10713;51.912;4.494;2023-10-31T09:09:54;100184.75;;;14.53;100.00
21111;BME280;10713;51.912;4.494;2023-10-31T09:12:20;100184.28;;;14.47;100.00
21111;BME280;10713;51.912;4.494;2023-10-31T09:14:45;100189.50;;;14.48;100.00
21111;BME280;10713;51.912;4.494;2023-10-31T09:17:11;100195.72;;;14.61;100.00
21111;BME280;10713;51.912;4.494;2023-10-31T09:19:36;100198.00;;;15.71;100.00
21111;BME280;10713;51.912;4.494;2023-10-31T09:22:01;100195.06;;;17.07;100.00
21111;BME280;10713;51.912;4.494;2023-10-31T09:24:27;100180.97;;;18.73;100.00
21111;BME280;10713;51.912;4.494;2023-10-31T09:26:52;100172.41;;;19.11;100.00
21111;BME280;10713;51.912;4.494;2023-10-31T09:29:17;100166.91;;;19.33;100.00
21111;BME280;10713;51.912;4.494;2023-10-31T09:31:43;100179.31;;;18.93;100.00
21111;BME280;10713;51.912;4.494;2023-10-31T09:34:08;100196.25;;;18.06;100.00
21111;BME280;10713;51.912;4.494;2023-10-31T09:36:34;100194.66;;;17.47;100.00
21111;BME280;10713;51.912;4.494;2023-10-31T09:39:00;100188.06;;;17.06;100.00
21111;BME280;10713;51.912;4.494;2023-10-31T09:41:25;100199.66;;;16.70;100.00
21111;BME280;10713;51.912;4.494;2023-10-31T09:43:50;100205.97;;;16.69;100.00
21111;BME280;10713;51.912;4.494;2023-10-31T09:46:16;100201.41;;;16.58;100.00
21111;BME280;10713;51.912;4.494;2023-10-31T09:48:43;100206.53;;;16.37;100.00
21111;BME280;10713;51.912;4.494;2023-10-31T09:51:09;100218.13;;;16.12;100.00
21111;BME280;10713;51.912;4.494;2023-10-31T09:53:37;100212.00;;;15.86;100.00
21111;BME280;10713;51.912;4.494;2023-10-31T09:56:04;100227.66;;;15.65;100.00
21111;BME280;10713;51.912;4.494;2023-10-31T09:58:29;100228.28;;;15.43;100.00
21111;BME280;10713;51.912;4.494;2023-10-31T10:00:55;100230.94;;;15.30;100.00
21111;BME280;10713;51.912;4.494;2023-10-31T10:03:21;100229.34;;;15.28;100.00
21111;BME280;10713;51.912;4.494;2023-10-31T10:05:47;100228.06;;;15.33;100.00
21111;BME280;10713;51.912;4.494;2023-10-31T10:08:14;100234.03;;;15.37;100.00
21111;BME280;10713;51.912;4.494;2023-10-31T10:10:39;100234.25;;;15.47;100.00
21111;BME280;10713;51.912;4.494;2023-10-31T10:13:05;100238.28;;;15.91;100.00
21111;BME280;10713;51.912;4.494;2023-10-31T10:15:30;100237.06;;;16.44;100.00
21111;BME280;10713;51.912;4.494;2023-10-31T10:18:07;100239.28;;;16.99;100.00
21111;BME280;10713;51.912;4.494;2023-10-31T10:20:33;100245.34;;;17.47;100.00
21111;BME280;10713;51.912;4.494;2023-10-31T10:23:03;100247.19;;;17.58;100.00
21111;BME280;10713;51.912;4.494;2023-10-31T10:25:29;100244.03;;;17.53;100.00
21111;BME280;10713;51.912;4.494;2023-10-31T10:27:55;100259.69;;;17.58;100.00
21111;BME280;10713;51.912;4.494;2023-10-31T10:30:21;100253.47;;;17.34;100.00
21111;BME280;10713;51.912;4.494;2023-10-31T10:32:49;100279.06;;;17.02;100.00
21111;BME280;10713;51.912;4.494;2023-10-31T10:35:16;100266.69;;;17.01;100.00
21111;BME280;10713;51.912;4.494;2023-10-31T10:37:42;100267.81;;;17.09;100.00
21111;BME280;10713;51.912;4.494;2023-10-31T10:40:10;100275.59;;;17.13;100.00
21111;BME280;10713;51.912;4.494;2023-10-31T10:42:46;100272.78;;;17.03;100.00
21111;BME280;10713;51.912;4.494;2023-10-31T10:45:13;100278.09;;;16.79;100.00
21111;BME280;10713;51.912;4.494;2023-10-31T10:47:40;100272.63;;;16.56;100.00
21111;BME280;10713;51.912;4.494;2023-10-31T10:50:12;100275.03;;;16.35;100.00
21111;BME280;10713;51.912;4.494;2023-10-31T10:52:48;100278.38;;;16.26;100.00
21111;BME280;10713;51.912;4.494;2023-10-31T10:55:21;100278.91;;;16.18;100.00
21111;BME280;10713;51.912;4.494;2023-10-31T10:58:09;100277.63;;;16.24;100.00
21111;BME280;10713;51.912;4.494;2023-10-31T11:00:39;100283.94;;;16.47;100.00
21111;BME280;10713;51.912;4.494;2023-10-31T11:03:05;100280.13;;;16.51;100.00
21111;BME280;10713;51.912;4.494;2023-10-31T11:05:32;100279.03;;;16.54;100.00
21111;BME280;10713;51.912;4.494;2023-10-31T11:07:57;100291.47;;;16.66;100.00
21111;BME280;10713;51.912;4.494;2023-10-31T11:10:24;100289.56;;;16.55;100.00
21111;BME280;10713;51.912;4.494;2023-10-31T11:12:50;100290.56;;;16.54;100.00
21111;BME280;10713;51.912;4.494;2023-10-31T11:15:17;100289.91;;;16.51;100.00
21111;BME280;10713;51.912;4.494;2023-10-31T11:17:44;100283.94;;;16.60;100.00
21111;BME280;10713;51.912;4.494;2023-10-31T11:20:13;100284.31;;;16.66;100.00
21111;BME280;10713;51.912;4.494;2023-10-31T11:22:46;100277.44;;;16.75;100.00
21111;BME280;10713;51.912;4.494;2023-10-31T11:25:20;100304.00;;;16.77;100.00
21111;BME280;10713;51.912;4.494;2023-10-31T11:27:46;100293.28;;;16.65;100.00
21111;BME280;10713;51.912;4.494;2023-10-31T11:30:28;100293.00;;;16.57;100.00
21111;BME280;10713;51.912;4.494;2023-10-31T11:33:03;100288.66;;;16.67;100.00
21111;BME280;10713;51.912;4.494;2023-10-31T11:35:30;100282.63;;;16.65;100.00
21111;BME280;10713;51.912;4.494;2023-10-31T11:38:02;100285.72;;;16.59;100.00
21111;BME280;10713;51.912;4.494;2023-10-31T11:40:35;100290.78;;;16.51;100.00
21111;BME280;10713;51.912;4.494;2023-10-31T11:43:05;100282.25;;;16.46;100.00
21111;BME280;10713;51.912;4.494;2023-10-31T11:45:35;100291.88;;;16.36;100.00
21111;BME280;10713;51.912;4.494;2023-10-31T11:48:04;100289.97;;;16.25;100.00
21111;BME280;10713;51.912;4.494;2023-10-31T11:50:30;100285.78;;;16.34;100.00
21111;BME280;10713;51.912;4.494;2023-10-31T11:53:01;100289.69;;;16.17;100.00
21111;BME280;10713;51.912;4.494;2023-10-31T11:55:28;100283.06;;;16.23;100.00
21111;BME280;10713;51.912;4.494;2023-10-31T11:57:53;100294.88;;;16.18;100.00
21111;BME280;10713;51.912;4.494;2023-10-31T12:00:23;100286.38;;;16.13;100.00
21111;BME280;10713;51.912;4.494;2023-10-31T12:03:01;100294.88;;;16.18;100.00
21111;BME280;10713;51.912;4.494;2023-10-31T12:05:27;100287.88;;;16.17;100.00
21111;BME280;10713;51.912;4.494;2023-10-31T12:07:53;100290.19;;;16.22;100.00
21111;BME280;10713;51.912;4.494;2023-10-31T12:10:27;100286.00;;;16.31;100.00
21111;BME280;10713;51.912;4.494;2023-10-31T12:12:55;100282.47;;;16.43;100.00
21111;BME280;10713;51.912;4.494;2023-10-31T12:15:21;100293.53;;;16.50;100.00
21111;BME280;10713;51.912;4.494;2023-10-31T12:17:48;100303.56;;;16.46;100.00
21111;BME280;10713;51.912;4.494;2023-10-31T12:20:13;100291.34;;;16.31;100.00
21111;BME280;10713;51.912;4.494;2023-10-31T12:22:39;100305.78;;;16.03;100.00
21111;BME280;10713;51.912;4.494;2023-10-31T12:25:07;100290.22;;;16.09;100.00
21111;BME280;10713;51.912;4.494;2023-10-31T12:27:49;100295.13;;;15.90;100.00
21111;BME280;10713;51.912;4.494;2023-10-31T12:30:20;100301.13;;;15.81;100.00
21111;BME280;10713;51.912;4.494;2023-10-31T12:32:53;100310.53;;;15.59;100.00
21111;BME280;10713;51.912;4.494;2023-10-31T12:35:21;100311.59;;;15.44;100.00
21111;BME280;10713;51.912;4.494;2023-10-31T12:37:47;100310.84;;;15.42;100.00
21111;BME280;10713;51.912;4.494;2023-10-31T12:40:17;100314.47;;;15.53;100.00